sensor_id;sensor_type;location;lat;lon;timestamp;pressure;altitude;pressure_sealevel;temperature;humidity
74881;BME280;63427;49.654;6.596;2022-12-18T01:29:21;100819.99;;;-5.17;35.83
74881;BME280;63427;49.654;6.596;2022-12-18T01:31:47;100820.66;;;-5.12;35.70
74881;BME280;63427;49.654;6.596;2022-12-18T01:34:12;100819.80;;;-5.13;35.67
74881;BME280;63427;49.654;6.596;2022-12-18T01:36:39;100813.26;;;-5.24;35.16
74881;BME280;63427;49.654;6.596;2022-12-18T01:39:05;100823.05;;;-5.40;35.31
74881;BME280;63427;49.654;6.596;2022-12-18T01:41:30;100826.10;;;-5.48;35.99
74881;BME280;63427;49.654;6.596;2022-12-18T01:43:55;100815.15;;;-5.53;36.31
74881;BME280;63427;49.654;6.596;2022-12-18T01:46:21;100812.36;;;-5.31;36.42
74881;BME280;63427;49.654;6.596;2022-12-18T01:48:45;100811.27;;;-5.33;35.90
74881;BME280;63427;49.654;6.596;2022-12-18T01:51:10;100818.19;;;-6.28;36.65
74881;BME280;63427;49.654;6.596;2022-12-18T01:53:36;100815.43;;;-5.28;37.12
74881;BME280;63427;49.654;6.596;2022-12-18T01:56:01;100812.96;;;-5.47;36.61
74881;BME280;63427;49.654;6.596;2022-12-18T01:58:32;100814.48;;;-5.44;36.91
74881;BME280;63427;49.654;6.596;2022-12-18T02:00:52;100808.57;;;-5.46;36.91
74881;BME280;63427;49.654;6.596;2022-12-18T02:03:17;100797.83;;;-5.72;36.02
74881;BME280;63427;49.654;6.596;2022-12-18T02:05:52;100804.48;;;-5.78;36.19
74881;BME280;63427;49.654;6.596;2022-12-18T02:08:12;100815.60;;;-5.86;36.35
74881;BME280;63427;49.654;6.596;2022-12-18T02:10:40;100818.58;;;-5.62;36.29
74881;BME280;63427;49.654;6.596;2022-12-18T02:13:06;100807.96;;;-5.68;36.29
74881;BME280;63427;49.654;6.596;2022-12-18T02:15:28;100817.58;;;-5.90;36.07
74881;BME280;63427;49.654;6.596;2022-12-18T02:17:54;100824.44;;;-5.48;35.85
74881;BME280;63427;49.654;6.596;2022-12-18T02:20:18;100819.99;;;-5.46;35.97
74881;BME280;63427;49.654;6.596;2022-12-18T02:22:46;100810.10;;;-5.75;36.16
74881;BME280;63427;49.654;6.596;2022-12-18T02:25:17;100801.22;;;-5.50;36.59
74881;BME280;63427;49.654;6.596;2022-12-18T02:27:32;100808.21;;;-5.58;36.57
74881;BME280;63427;49.654;6.596;2022-12-18T02:29:57;100808.78;;;-5.82;36.04
74881;BME280;63427;49.654;6.596;2022-12-18T02:32:25;100803.89;;;-5.59;36.32
74881;BME280;63427;49.654;6.596;2022-12-18T02:34:48;100794.53;;;-5.62;36.70
74881;BME280;63427;49.654;6.596;2022-12-18T02:37:15;100789.09;;;-5.73;36.71
74881;BME280;63427;49.654;6.596;2022-12-18T02:39:39;100792.70;;;-5.78;36.27
74881;BME280;63427;49.654;6.596;2022-12-18T02:42:04;100795.23;;;-6.00;36.34
74881;BME280;63427;49.654;6.596;2022-12-18T02:44:29;100795.51;;;-5.78;35.98
74881;BME280;63427;49.654;6.596;2022-12-18T02:46:54;100793.43;;;-5.75;35.87
74881;BME280;63427;49.654;6.596;2022-12-18T02:49:29;100793.63;;;-5.81;36.27
74881;BME280;63427;49.654;6.596;2022-12-18T02:51:51;100795.11;;;-6.10;36.33
74881;BME280;63427;49.654;6.596;2022-12-18T02:54:16;100795.06;;;-6.10;36.51
74881;BME280;63427;49.654;6.596;2022-12-18T02:56:39;100794.25;;;-5.89;36.39
74881;BME280;63427;49.654;6.596;2022-12-18T02:59:06;100797.39;;;-5.88;36.22
74881;BME280;63427;49.654;6.596;2022-12-18T03:01:33;100798.77;;;-5.90;36.18
74881;BME280;63427;49.654;6.596;2022-12-18T03:03:56;100801.02;;;-5.94;36.28
74881;BME280;63427;49.654;6.596;2022-12-18T03:06:24;100803.16;;;-6.02;36.21
74881;BME280;63427;49.654;6.596;2022-12-18T03:08:48;100810.02;;;-6.01;36.49
74881;BME280;63427;49.654;6.596;2022-12-18T03:11:11;100819.40;;;-6.03;36.80
74881;BME280;63427;49.654;6.596;2022-12-18T03:13:38;100817.27;;;-6.26;36.20
74881;BME280;63427;49.654;6.596;2022-12-18T03:16:02;100818.88;;;-6.03;36.17
74881;BME280;63427;49.654;6.596;2022-12-18T03:18:30;100817.66;;;-6.07;35.98
74881;BME280;63427;49.654;6.596;2022-12-18T03:20:53;100813.46;;;-6.13;36.47
74881;BME280;63427;49.654;6.596;2022-12-18T03:23:20;100806.71;;;-6.25;36.59
74881;BME280;63427;49.654;6.596;2022-12-18T03:25:44;100799.08;;;-6.52;36.62
74881;BME280;63427;49.654;6.596;2022-12-18T03:28:10;100798.78;;;-6.16;36.61
74881;BME280;63427;49.654;6.596;2022-12-18T03:30:37;100805.96;;;-6.12;36.88
74881;BME280;63427;49.654;6.596;2022-12-18T03:33:05;100801.48;;;-6.38;36.81
74881;BME280;63427;49.654;6.596;2022-12-18T03:35:30;100810.00;;;-6.11;36.43
74881;BME280;63427;49.654;6.596;2022-12-18T03:37:51;100807.35;;;-6.15;36.78
74881;BME280;63427;49.654;6.596;2022-12-18T03:40:16;100805.26;;;-6.41;36.60
74881;BME280;63427;49.654;6.596;2022-12-18T03:42:46;100806.18;;;-6.41;36.66
74881;BME280;63427;49.654;6.596;2022-12-18T03:45:10;100802.83;;;-6.41;36.18
74881;BME280;63427;49.654;6.596;2022-12-18T03:47:35;100801.02;;;-6.16;35.97
74881;BME280;63427;49.654;6.596;2022-12-18T03:50:02;100800.74;;;-6.42;36.33
74881;BME280;63427;49.654;6.596;2022-12-18T03:52:26;100798.37;;;-6.49;36.57
74881;BME280;63427;49.654;6.596;2022-12-18T03:54:48;100799.58;;;-6.47;36.31
74881;BME280;63427;49.654;6.596;2022-12-18T03:57:15;100797.58;;;-6.30;36.68
74881;BME280;63427;49.654;6.596;2022-12-18T03:59:39;100787.65;;;-6.51;36.32
74881;BME280;63427;49.654;6.596;2022-12-18T04:02:05;100791.31;;;-6.43;36.20
74881;BME280;63427;49.654;6.596;2022-12-18T04:04:29;100796.23;;;-6.55;36.64
74881;BME280;63427;49.654;6.596;2022-12-18T04:06:55;100795.27;;;-6.51;36.59
74881;BME280;63427;49.654;6.596;2022-12-18T04:09:20;100786.82;;;-6.56;36.41
74881;BME280;63427;49.654;6.596;2022-12-18T04:11:46;100787.02;;;-6.57;36.24
74881;BME280;63427;49.654;6.596;2022-12-18T04:14:11;100799.20;;;-6.62;36.50
74881;BME280;63427;49.654;6.596;2022-12-18T04:16:37;100785.38;;;-6.36;36.27
74881;BME280;63427;49.654;6.596;2022-12-18T04:19:01;100787.03;;;-6.65;36.42
74881;BME280;63427;49.654;6.596;2022-12-18T04:21:27;100775.92;;;-6.44;36.74
74881;BME280;63427;49.654;6.596;2022-12-18T04:23:53;100769.07;;;-6.18;36.42
74881;BME280;63427;49.654;6.596;2022-12-18T04:26:18;100774.75;;;-6.44;36.39
74881;BME280;63427;49.654;6.596;2022-12-18T04:28:44;100782.77;;;-6.49;37.07
74881;BME280;63427;49.654;6.596;2022-12-18T04:31:14;100781.83;;;-6.47;36.77
74881;BME280;63427;49.654;6.596;2022-12-18T04:33:35;100773.71;;;-6.51;36.60
74881;BME280;63427;49.654;6.596;2022-12-18T04:36:00;100778.49;;;-6.56;37.22
74881;BME280;63427;49.654;6.596;2022-12-18T04:38:26;100783.79;;;-6.35;36.99
74881;BME280;63427;49.654;6.596;2022-12-18T04:40:51;100790.16;;;-6.53;36.69
74881;BME280;63427;49.654;6.596;2022-12-18T04:43:17;100794.73;;;-6.63;36.75
74881;BME280;63427;49.654;6.596;2022-12-18T04:45:43;100789.42;;;-6.62;36.65
74881;BME280;63427;49.654;6.596;2022-12-18T04:48:08;100786.33;;;-6.82;36.68
74881;BME280;63427;49.654;6.596;2022-12-18T04:50:37;100781.51;;;-6.56;36.43
74881;BME280;63427;49.654;6.596;2022-12-18T04:52:59;100778.89;;;-6.54;36.26
74881;BME280;63427;49.654;6.596;2022-12-18T04:55:24;100774.41;;;-6.36;36.46
74881;BME280;63427;49.654;6.596;2022-12-18T04:57:49;100779.39;;;-6.52;36.02
74881;BME280;63427;49.654;6.596;2022-12-18T05:02:40;100776.22;;;-6.66;36.22
74881;BME280;63427;49.654;6.596;2022-12-18T05:05:07;100779.27;;;-6.59;36.03
74881;BME280;63427;49.654;6.596;2022-12-18T05:07:31;100791.57;;;-6.50;36.10
74881;BME280;63427;49.654;6.596;2022-12-18T05:09:56;100796.65;;;-6.39;36.56
74881;BME280;63427;49.654;6.596;2022-12-18T05:12:23;100802.77;;;-6.44;36.35
74881;BME280;63427;49.654;6.596;2022-12-18T05:14:47;100804.51;;;-6.55;35.99
74881;BME280;63427;49.654;6.596;2022-12-18T05:17:11;100810.95;;;-6.46;36.02
74881;BME280;63427;49.654;6.596;2022-12-18T05:19:36;100817.04;;;-6.74;36.00
74881;BME280;63427;49.654;6.596;2022-12-18T05:22:02;100820.90;;;-6.80;36.02
74881;BME280;63427;49.654;6.596;2022-12-18T05:24:27;100823.39;;;-6.59;36.54
74881;BME280;63427;49.654;6.596;2022-12-18T05:26:52;100821.92;;;-6.52;36.69
74881;BME280;63427;49.654;6.596;2022-12-18T05:29:18;100822.48;;;-6.65;36.34
74881;BME280;63427;49.654;6.596;2022-12-18T05:31:43;100815.60;;;-6.63;36.22
74881;BME280;63427;49.654;6.596;2022-12-18T05:34:08;100815.28;;;-6.44;36.34
74881;BME280;63427;49.654;6.596;2022-12-18T05:36:35;100815.71;;;-6.73;36.31
74881;BME280;63427;49.654;6.596;2022-12-18T05:38:59;100817.67;;;-6.77;36.39
74881;BME280;63427;49.654;6.596;2022-12-18T05:41:24;100823.59;;;-6.52;36.49
74881;BME280;63427;49.654;6.596;2022-12-18T05:43:50;100820.89;;;-6.60;36.57
74881;BME280;63427;49.654;6.596;2022-12-18T05:48:41;100825.23;;;-6.74;36.64
74881;BME280;63427;49.654;6.596;2022-12-18T05:51:19;100826.44;;;-6.69;36.34
74881;BME280;63427;49.654;6.596;2022-12-18T05:53:33;100822.86;;;-6.89;36.41
74881;BME280;63427;49.654;6.596;2022-12-18T05:56:00;100818.75;;;-6.43;36.32
74881;BME280;63427;49.654;6.596;2022-12-18T05:58:23;100817.14;;;-6.74;36.32
74881;BME280;63427;49.654;6.596;2022-12-18T06:00:49;100820.34;;;-6.73;36.16
74881;BME280;63427;49.654;6.596;2022-12-18T06:03:15;100821.85;;;-6.71;36.26
74881;BME280;63427;49.654;6.596;2022-12-18T06:05:42;100826.89;;;-6.52;36.44
74881;BME280;63427;49.654;6.596;2022-12-18T06:08:05;100822.87;;;-6.75;37.22
74881;BME280;63427;49.654;6.596;2022-12-18T06:10:31;100826.39;;;-7.06;37.21
74881;BME280;63427;49.654;6.596;2022-12-18T06:12:56;100828.38;;;-7.08;36.95
74881;BME280;63427;49.654;6.596;2022-12-18T06:15:22;100833.01;;;-6.83;36.68
74881;BME280;63427;49.654;6.596;2022-12-18T06:17:47;100834.83;;;-7.06;36.54
74881;BME280;63427;49.654;6.596;2022-12-18T06:20:14;100836.92;;;-6.55;36.83
74881;BME280;63427;49.654;6.596;2022-12-18T06:22:39;100842.32;;;-6.56;36.55
74881;BME280;63427;49.654;6.596;2022-12-18T06:25:04;100842.91;;;-6.68;36.41
74881;BME280;63427;49.654;6.596;2022-12-18T06:27:28;100842.35;;;-6.90;36.65
74881;BME280;63427;49.654;6.596;2022-12-18T06:29:54;100836.09;;;-6.89;36.35
74881;BME280;63427;49.654;6.596;2022-12-18T06:32:19;100842.40;;;-6.67;36.42
74881;BME280;63427;49.654;6.596;2022-12-18T06:34:44;100849.50;;;-6.63;36.50
74881;BME280;63427;49.654;6.596;2022-12-18T06:37:10;100850.75;;;-6.81;36.22
74881;BME280;63427;49.654;6.596;2022-12-18T06:39:36;100851.27;;;-6.58;36.25
74881;BME280;63427;49.654;6.596;2022-12-18T06:42:01;100854.10;;;-6.81;36.31
74881;BME280;63427;49.654;6.596;2022-12-18T06:44:27;100852.07;;;-6.81;36.45
74881;BME280;63427;49.654;6.596;2022-12-18T06:46:52;100853.28;;;-6.49;36.17
74881;BME280;63427;49.654;6.596;2022-12-18T06:49:18;100856.78;;;-6.90;36.53
74881;BME280;63427;49.654;6.596;2022-12-18T06:51:43;100859.65;;;-6.84;36.38
74881;BME280;63427;49.654;6.596;2022-12-18T06:54:08;100860.51;;;-7.06;36.54
74881;BME280;63427;49.654;6.596;2022-12-18T06:56:34;100868.08;;;-7.10;36.80
74881;BME280;63427;49.654;6.596;2022-12-18T06:59:00;100871.72;;;-6.63;36.46
74881;BME280;63427;49.654;6.596;2022-12-18T07:01:25;100870.06;;;-6.65;36.66
74881;BME280;63427;49.654;6.596;2022-12-18T07:03:52;100867.26;;;-6.89;36.52
74881;BME280;63427;49.654;6.596;2022-12-18T07:06:18;100868.27;;;-6.86;36.51
74881;BME280;63427;49.654;6.596;2022-12-18T07:08:41;100872.26;;;-6.67;36.68
74881;BME280;63427;49.654;6.596;2022-12-18T07:11:06;100874.70;;;-6.61;36.74
74881;BME280;63427;49.654;6.596;2022-12-18T07:13:31;100881.84;;;-6.89;36.50
74881;BME280;63427;49.654;6.596;2022-12-18T07:16:04;100887.49;;;-6.81;36.31
74881;BME280;63427;49.654;6.596;2022-12-18T07:18:22;100894.13;;;-7.10;36.75
74881;BME280;63427;49.654;6.596;2022-12-18T07:20:47;100897.54;;;-6.89;36.36
74881;BME280;63427;49.654;6.596;2022-12-18T07:23:13;100901.35;;;-6.61;36.54
74881;BME280;63427;49.654;6.596;2022-12-18T07:25:38;100905.64;;;-6.91;36.42
74881;BME280;63427;49.654;6.596;2022-12-18T07:28:04;100905.08;;;-6.90;36.28
74881;BME280;63427;49.654;6.596;2022-12-18T07:30:29;100909.20;;;-6.65;36.47
74881;BME280;63427;49.654;6.596;2022-12-18T07:32:55;100909.81;;;-6.90;36.52
74881;BME280;63427;49.654;6.596;2022-12-18T07:35:20;100911.48;;;-6.86;36.52
74881;BME280;63427;49.654;6.596;2022-12-18T07:37:46;100903.83;;;-6.57;36.79
74881;BME280;63427;49.654;6.596;2022-12-18T07:40:12;100888.90;;;-6.77;36.74
74881;BME280;63427;49.654;6.596;2022-12-18T07:42:37;100885.29;;;-6.74;36.73
74881;BME280;63427;49.654;6.596;2022-12-18T07:45:04;100879.06;;;-6.69;36.46
74881;BME280;63427;49.654;6.596;2022-12-18T07:47:38;100868.84;;;-6.66;36.70
74881;BME280;63427;49.654;6.596;2022-12-18T07:49:53;100860.96;;;-6.60;36.69
74881;BME280;63427;49.654;6.596;2022-12-18T07:52:19;100856.15;;;-6.61;36.65
74881;BME280;63427;49.654;6.596;2022-12-18T07:54:45;100854.95;;;-6.44;36.46
74881;BME280;63427;49.654;6.596;2022-12-18T07:57:10;100855.54;;;-6.50;36.98
74881;BME280;63427;49.654;6.596;2022-12-18T07:59:36;100853.76;;;-6.64;36.58
74881;BME280;63427;49.654;6.596;2022-12-18T08:02:06;100856.33;;;-6.28;36.88
74881;BME280;63427;49.654;6.596;2022-12-18T08:04:26;100857.27;;;-6.24;37.01
74881;BME280;63427;49.654;6.596;2022-12-18T08:06:52;100855.70;;;-6.18;37.03
74881;BME280;63427;49.654;6.596;2022-12-18T08:09:17;100850.21;;;-6.34;37.63
74881;BME280;63427;49.654;6.596;2022-12-18T08:11:43;100847.49;;;-6.25;36.72
74881;BME280;63427;49.654;6.596;2022-12-18T08:14:09;100856.75;;;-6.11;36.79
74881;BME280;63427;49.654;6.596;2022-12-18T08:16:33;100858.33;;;-6.12;36.37
74881;BME280;63427;49.654;6.596;2022-12-18T08:18:59;100858.34;;;-6.06;36.77
74881;BME280;63427;49.654;6.596;2022-12-18T08:21:26;100858.32;;;-6.28;36.80
74881;BME280;63427;49.654;6.596;2022-12-18T08:23:51;100857.12;;;-5.89;36.83
74881;BME280;63427;49.654;6.596;2022-12-18T08:26:16;100858.61;;;-6.06;36.75
74881;BME280;63427;49.654;6.596;2022-12-18T08:28:41;100860.90;;;-6.16;36.78
74881;BME280;63427;49.654;6.596;2022-12-18T08:31:07;100858.72;;;-5.57;36.66
74881;BME280;63427;49.654;6.596;2022-12-18T08:33:32;100861.13;;;-5.96;36.80
74881;BME280;63427;49.654;6.596;2022-12-18T08:35:58;100855.51;;;-5.55;36.58
74881;BME280;63427;49.654;6.596;2022-12-18T08:38:22;100850.39;;;-5.69;36.38
74881;BME280;63427;49.654;6.596;2022-12-18T08:40:47;100849.22;;;-5.55;36.10
74881;BME280;63427;49.654;6.596;2022-12-18T08:43:12;100849.85;;;-5.48;36.11
74881;BME280;63427;49.654;6.596;2022-12-18T08:45:49;100845.98;;;-5.29;36.12
74881;BME280;63427;49.654;6.596;2022-12-18T08:48:04;100851.63;;;-5.06;35.37
74881;BME280;63427;49.654;6.596;2022-12-18T08:50:29;100866.48;;;-4.92;35.51
74881;BME280;63427;49.654;6.596;2022-12-18T08:52:54;100874.57;;;-4.70;36.56
74881;BME280;63427;49.654;6.596;2022-12-18T08:55:19;100878.37;;;-4.54;36.21
74881;BME280;63427;49.654;6.596;2022-12-18T08:57:55;100879.97;;;-4.31;35.50
74881;BME280;63427;49.654;6.596;2022-12-18T09:00:11;100882.84;;;-4.33;35.89
74881;BME280;63427;49.654;6.596;2022-12-18T09:02:36;100880.53;;;-4.29;35.76
74881;BME280;63427;49.654;6.596;2022-12-18T09:05:01;100878.73;;;-3.85;36.09
74881;BME280;63427;49.654;6.596;2022-12-18T09:07:30;100880.65;;;-3.91;35.93
74881;BME280;63427;49.654;6.596;2022-12-18T09:09:52;100885.59;;;-3.70;35.08
74881;BME280;63427;49.654;6.596;2022-12-18T09:12:18;100896.01;;;-3.61;34.80
74881;BME280;63427;49.654;6.596;2022-12-18T09:14:44;100894.03;;;-3.31;34.86
74881;BME280;63427;49.654;6.596;2022-12-18T09:17:09;100894.56;;;-3.20;34.65
74881;BME280;63427;49.654;6.596;2022-12-18T09:19:35;100895.19;;;-2.87;34.29
74881;BME280;63427;49.654;6.596;2022-12-18T09:22:00;100885.16;;;-2.51;35.15
74881;BME280;63427;49.654;6.596;2022-12-18T09:24:25;100879.23;;;-2.21;35.01
74881;BME280;63427;49.654;6.596;2022-12-18T09:26:53;100872.30;;;-2.15;34.81
74881;BME280;63427;49.654;6.596;2022-12-18T09:29:16;100873.25;;;-1.92;34.71
74881;BME280;63427;49.654;6.596;2022-12-18T09:31:42;100874.44;;;-1.85;34.40
74881;BME280;63427;49.654;6.596;2022-12-18T09:34:07;100873.03;;;-1.54;33.81
74881;BME280;63427;49.654;6.596;2022-12-18T09:36:33;100873.29;;;-1.46;33.99
74881;BME280;63427;49.654;6.596;2022-12-18T09:38:59;100867.77;;;-0.96;32.83
74881;BME280;63427;49.654;6.596;2022-12-18T09:41:35;100864.07;;;-1.08;33.41
74881;BME280;63427;49.654;6.596;2022-12-18T09:43:52;100862.97;;;-0.30;32.13
74881;BME280;63427;49.654;6.596;2022-12-18T09:46:19;100870.50;;;-0.47;31.94
74881;BME280;63427;49.654;6.596;2022-12-18T09:48:46;100875.33;;;-0.25;31.95
74881;BME280;63427;49.654;6.596;2022-12-18T09:51:14;100879.50;;;0.02;32.15
74881;BME280;63427;49.654;6.596;2022-12-18T09:53:35;100876.50;;;-0.16;32.74
74881;BME280;63427;49.654;6.596;2022-12-18T09:55:58;100866.84;;;0.77;32.47
74881;BME280;63427;49.654;6.596;2022-12-18T09:58:28;100853.82;;;0.44;31.92
74881;BME280;63427;49.654;6.596;2022-12-18T10:00:48;100840.14;;;0.86;32.04
74881;BME280;63427;49.654;6.596;2022-12-18T10:03:14;100840.55;;;1.12;31.39
74881;BME280;63427;49.654;6.596;2022-12-18T10:05:45;100850.37;;;1.32;30.39
74881;BME280;63427;49.654;6.596;2022-12-18T10:08:09;100844.96;;;1.43;30.07
74881;BME280;63427;49.654;6.596;2022-12-18T10:10:38;100837.99;;;1.15;30.28
74881;BME280;63427;49.654;6.596;2022-12-18T10:13:03;100831.45;;;1.24;30.30
74881;BME280;63427;49.654;6.596;2022-12-18T10:15:26;100829.78;;;1.65;30.68
74881;BME280;63427;49.654;6.596;2022-12-18T10:17:51;100829.11;;;1.57;29.66
74881;BME280;63427;49.654;6.596;2022-12-18T10:20:15;100832.27;;;1.74;30.23
74881;BME280;63427;49.654;6.596;2022-12-18T10:22:47;100826.99;;;1.62;30.15
74881;BME280;63427;49.654;6.596;2022-12-18T10:25:10;100822.83;;;2.03;29.87
74881;BME280;63427;49.654;6.596;2022-12-18T10:27:29;100821.73;;;2.04;30.06
74881;BME280;63427;49.654;6.596;2022-12-18T10:29:54;100811.33;;;2.18;29.68
74881;BME280;63427;49.654;6.596;2022-12-18T10:32:21;100806.02;;;2.14;29.85
74881;BME280;63427;49.654;6.596;2022-12-18T10:34:46;100807.59;;;2.41;28.80
74881;BME280;63427;49.654;6.596;2022-12-18T10:37:16;100800.99;;;2.47;29.12
74881;BME280;63427;49.654;6.596;2022-12-18T10:39:36;100795.57;;;2.56;28.46
74881;BME280;63427;49.654;6.596;2022-12-18T10:42:09;100792.24;;;2.54;28.85
74881;BME280;63427;49.654;6.596;2022-12-18T10:44:27;100779.72;;;2.51;29.01
74881;BME280;63427;49.654;6.596;2022-12-18T10:46:55;100781.07;;;2.65;28.81
74881;BME280;63427;49.654;6.596;2022-12-18T10:49:21;100782.00;;;3.06;29.46
74881;BME280;63427;49.654;6.596;2022-12-18T10:51:43;100781.47;;;2.73;29.18
74881;BME280;63427;49.654;6.596;2022-12-18T10:54:15;100775.73;;;2.85;28.46
74881;BME280;63427;49.654;6.596;2022-12-18T10:56:35;100771.87;;;2.93;28.47
74881;BME280;63427;49.654;6.596;2022-12-18T10:59:01;100767.26;;;2.74;29.01
74881;BME280;63427;49.654;6.596;2022-12-18T11:01:25;100767.94;;;2.81;28.85
74881;BME280;63427;49.654;6.596;2022-12-18T11:04:00;100768.32;;;3.01;29.33
74881;BME280;63427;49.654;6.596;2022-12-18T11:06:18;100765.68;;;3.09;29.65
74881;BME280;63427;49.654;6.596;2022-12-18T11:08:56;100758.56;;;3.26;28.64
74881;BME280;63427;49.654;6.596;2022-12-18T11:11:18;100761.86;;;3.40;28.11
74881;BME280;63427;49.654;6.596;2022-12-18T11:13:33;100758.28;;;3.50;29.08
74881;BME280;63427;49.654;6.596;2022-12-18T11:15:58;100758.17;;;3.67;28.41
74881;BME280;63427;49.654;6.596;2022-12-18T11:18:27;100753.30;;;3.72;28.60
74881;BME280;63427;49.654;6.596;2022-12-18T11:20:52;100748.48;;;3.56;29.10
74881;BME280;63427;49.654;6.596;2022-12-18T11:23:15;100739.19;;;4.10;28.51
74881;BME280;63427;49.654;6.596;2022-12-18T11:30:33;100734.88;;;4.15;27.60
74881;BME280;63427;49.654;6.596;2022-12-18T11:33:00;100740.96;;;3.56;28.15
74881;BME280;63427;49.654;6.596;2022-12-18T11:35:32;100749.95;;;4.20;27.96
74881;BME280;63427;49.654;6.596;2022-12-18T11:37:50;100748.58;;;4.15;28.75
74881;BME280;63427;49.654;6.596;2022-12-18T11:40:15;100744.43;;;4.00;28.12
74881;BME280;63427;49.654;6.596;2022-12-18T11:42:44;100734.68;;;4.08;27.91
74881;BME280;63427;49.654;6.596;2022-12-18T11:45:20;100737.04;;;4.22;28.03
74881;BME280;63427;49.654;6.596;2022-12-18T11:47:37;100743.17;;;4.18;28.02
74881;BME280;63427;49.654;6.596;2022-12-18T11:49:55;100748.12;;;4.22;27.61
74881;BME280;63427;49.654;6.596;2022-12-18T11:52:22;100743.21;;;4.21;27.74
74881;BME280;63427;49.654;6.596;2022-12-18T11:54:45;100726.72;;;4.59;28.12
74881;BME280;63427;49.654;6.596;2022-12-18T11:57:17;100718.05;;;4.40;28.05
74881;BME280;63427;49.654;6.596;2022-12-18T11:59:43;100711.36;;;4.61;27.79
74881;BME280;63427;49.654;6.596;2022-12-18T12:02:15;100710.49;;;4.67;27.54
74881;BME280;63427;49.654;6.596;2022-12-18T12:04:42;100706.55;;;4.60;27.97
74881;BME280;63427;49.654;6.596;2022-12-18T12:06:59;100700.10;;;4.53;27.97
74881;BME280;63427;49.654;6.596;2022-12-18T12:09:23;100692.51;;;4.13;27.95
74881;BME280;63427;49.654;6.596;2022-12-18T12:11:52;100688.85;;;4.62;28.44
74881;BME280;63427;49.654;6.596;2022-12-18T12:14:23;100676.38;;;4.44;28.41
74881;BME280;63427;49.654;6.596;2022-12-18T12:16:39;100672.30;;;4.47;28.15
74881;BME280;63427;49.654;6.596;2022-12-18T12:19:07;100674.64;;;4.88;27.96
74881;BME280;63427;49.654;6.596;2022-12-18T12:21:28;100673.51;;;4.55;27.62
74881;BME280;63427;49.654;6.596;2022-12-18T12:23:57;100675.64;;;4.65;27.99
74881;BME280;63427;49.654;6.596;2022-12-18T12:26:19;100674.32;;;4.69;28.30
74881;BME280;63427;49.654;6.596;2022-12-18T12:28:52;100671.52;;;4.42;28.64
74881;BME280;63427;49.654;6.596;2022-12-18T12:31:13;100672.10;;;4.75;27.77
74881;BME280;63427;49.654;6.596;2022-12-18T12:33:39;100670.17;;;4.58;28.05
74881;BME280;63427;49.654;6.596;2022-12-18T12:36:01;100663.28;;;4.50;28.16
74881;BME280;63427;49.654;6.596;2022-12-18T12:38:25;100664.99;;;4.26;28.79
74881;BME280;63427;49.654;6.596;2022-12-18T12:40:51;100663.19;;;4.33;29.16
74881;BME280;63427;49.654;6.596;2022-12-18T12:43:24;100659.80;;;4.56;28.75
74881;BME280;63427;49.654;6.596;2022-12-18T12:45:42;100659.01;;;4.46;28.70
74881;BME280;63427;49.654;6.596;2022-12-18T12:48:07;100661.89;;;4.54;28.38
74881;BME280;63427;49.654;6.596;2022-12-18T12:50:34;100665.02;;;4.58;28.04
74881;BME280;63427;49.654;6.596;2022-12-18T12:52:57;100665.84;;;4.34;28.09
74881;BME280;63427;49.654;6.596;2022-12-18T12:55:23;100668.95;;;4.51;28.92
74881;BME280;63427;49.654;6.596;2022-12-18T12:57:54;100667.46;;;4.48;28.54
74881;BME280;63427;49.654;6.596;2022-12-18T13:00:15;100659.64;;;4.26;28.39
74881;BME280;63427;49.654;6.596;2022-12-18T13:02:44;100655.89;;;4.25;28.36
74881;BME280;63427;49.654;6.596;2022-12-18T13:05:09;100652.58;;;4.27;28.16
74881;BME280;63427;49.654;6.596;2022-12-18T13:07:32;100658.32;;;4.28;28.00
74881;BME280;63427;49.654;6.596;2022-12-18T13:10:19;100656.07;;;4.30;28.34
74881;BME280;63427;49.654;6.596;2022-12-18T13:12:20;100648.83;;;4.51;28.87
74881;BME280;63427;49.654;6.596;2022-12-18T13:14:45;100645.01;;;4.27;28.67
74881;BME280;63427;49.654;6.596;2022-12-18T13:17:27;100640.75;;;4.49;29.03
74881;BME280;63427;49.654;6.596;2022-12-18T13:19:36;100641.44;;;4.53;29.45
74881;BME280;63427;49.654;6.596;2022-12-18T13:22:02;100637.33;;;4.59;29.44
74881;BME280;63427;49.654;6.596;2022-12-18T13:24:31;100634.16;;;4.77;28.26
74881;BME280;63427;49.654;6.596;2022-12-18T13:31:59;100644.68;;;4.49;28.48
74881;BME280;63427;49.654;6.596;2022-12-18T13:34:16;100641.21;;;4.60;27.67
74881;BME280;63427;49.654;6.596;2022-12-18T13:36:36;100641.91;;;4.48;27.86
74881;BME280;63427;49.654;6.596;2022-12-18T13:39:15;100635.52;;;4.04;29.06
74881;BME280;63427;49.654;6.596;2022-12-18T13:41:27;100626.74;;;4.25;28.61
74881;BME280;63427;49.654;6.596;2022-12-18T13:43:53;100622.99;;;3.97;28.57
74881;BME280;63427;49.654;6.596;2022-12-18T13:46:21;100613.75;;;4.20;29.09
74881;BME280;63427;49.654;6.596;2022-12-18T13:51:09;100607.62;;;3.76;29.08
74881;BME280;63427;49.654;6.596;2022-12-18T13:53:37;100601.66;;;4.18;28.87
74881;BME280;63427;49.654;6.596;2022-12-18T13:55:59;100605.57;;;4.02;28.82
74881;BME280;63427;49.654;6.596;2022-12-18T13:58:27;100600.61;;;3.82;28.55
74881;BME280;63427;49.654;6.596;2022-12-18T14:00:56;100605.91;;;4.08;29.04
74881;BME280;63427;49.654;6.596;2022-12-18T14:03:24;100604.36;;;3.89;29.21
74881;BME280;63427;49.654;6.596;2022-12-18T14:05:44;100604.08;;;4.23;29.20
74881;BME280;63427;49.654;6.596;2022-12-18T14:08:10;100602.09;;;3.94;29.49
74881;BME280;63427;49.654;6.596;2022-12-18T14:10:33;100610.06;;;3.89;29.51
74881;BME280;63427;49.654;6.596;2022-12-18T14:13:09;100610.62;;;4.26;29.13
74881;BME280;63427;49.654;6.596;2022-12-18T14:15:31;100608.79;;;4.10;29.63
74881;BME280;63427;49.654;6.596;2022-12-18T14:17:50;100609.83;;;4.11;29.96
74881;BME280;63427;49.654;6.596;2022-12-18T14:20:17;100608.03;;;3.74;29.65
74881;BME280;63427;49.654;6.596;2022-12-18T14:22:44;100605.37;;;3.60;29.92
74881;BME280;63427;49.654;6.596;2022-12-18T14:25:14;100609.36;;;3.35;30.26
74881;BME280;63427;49.654;6.596;2022-12-18T14:27:30;100608.86;;;3.82;29.84